createdAt,value
2023-03-29T00:00:32.572Z,100.00
2023-03-29T00:03:02.670Z,100.00
2023-03-29T00:05:34.014Z,100.00
2023-03-29T00:08:04.392Z,100.00
2023-03-29T00:10:33.973Z,100.00
2023-03-29T00:13:02.051Z,100.00
2023-03-29T00:15:29.728Z,100.00
2023-03-29T00:17:57.534Z,100.00
2023-03-29T00:20:25.547Z,100.00
2023-03-29T00:22:53.257Z,100.00
2023-03-29T00:25:20.997Z,100.00
2023-03-29T00:27:50.291Z,100.00
2023-03-29T00:30:18.233Z,100.00
2023-03-29T00:32:46.020Z,100.00
2023-03-29T00:35:13.847Z,100.00
2023-03-29T00:37:41.869Z,100.00
2023-03-29T00:40:12.808Z,100.00
2023-03-29T00:42:40.554Z,100.00
2023-03-29T00:45:19.079Z,100.00
2023-03-29T00:47:49.874Z,100.00
2023-03-29T00:50:20.182Z,100.00
2023-03-29T00:52:50.655Z,100.00
2023-03-29T00:55:21.784Z,100.00
2023-03-29T00:57:49.624Z,100.00
2023-03-29T01:00:20.966Z,100.00
2023-03-29T01:02:54.239Z,100.00
2023-03-29T01:05:24.539Z,100.00
2023-03-29T01:07:57.969Z,100.00
2023-03-29T01:10:28.675Z,100.00
2023-03-29T01:13:00.326Z,100.00
2023-03-29T01:15:29.880Z,100.00
2023-03-29T01:17:58.474Z,100.00
2023-03-29T01:20:33.220Z,100.00
2023-03-29T01:23:08.392Z,100.00
2023-03-29T01:25:41.372Z,100.00
2023-03-29T01:28:12.036Z,100.00
2023-03-29T01:30:43.193Z,100.00
2023-03-29T01:33:21.231Z,100.00
2023-03-29T01:35:52.142Z,100.00
2023-03-29T01:38:22.789Z,100.00
2023-03-29T01:40:50.450Z,100.00
2023-03-29T01:43:23.623Z,100.00
2023-03-29T01:45:54.602Z,100.00
2023-03-29T01:48:26.868Z,100.00
2023-03-29T01:50:56.120Z,100.00
2023-03-29T01:53:27.328Z,100.00
2023-03-29T01:55:56.801Z,100.00
2023-03-29T01:58:28.386Z,100.00
2023-03-29T02:00:56.342Z,100.00
2023-03-29T02:03:25.208Z,100.00
2023-03-29T02:05:53.525Z,100.00
2023-03-29T02:08:23.119Z,100.00
2023-03-29T02:10:52.534Z,100.00
2023-03-29T02:13:20.638Z,100.00
2023-03-29T02:15:49.704Z,100.00
2023-03-29T02:18:18.619Z,100.00
2023-03-29T02:20:48.618Z,100.00
2023-03-29T02:23:18.122Z,100.00
2023-03-29T02:25:47.117Z,100.00
2023-03-29T02:28:15.367Z,100.00
2023-03-29T02:30:45.293Z,100.00
2023-03-29T02:33:16.429Z,100.00
2023-03-29T02:35:48.505Z,100.00
2023-03-29T02:38:17.333Z,100.00
2023-03-29T02:40:46.788Z,100.00
2023-03-29T02:43:16.647Z,100.00
2023-03-29T02:45:45.291Z,100.00
2023-03-29T02:48:17.198Z,100.00
2023-03-29T02:50:47.152Z,100.00
2023-03-29T02:53:18.088Z,100.00
2023-03-29T02:55:46.958Z,100.00
2023-03-29T02:58:15.493Z,100.00
2023-03-29T03:00:44.887Z,100.00
2023-03-29T03:03:15.613Z,100.00
2023-03-29T03:05:43.549Z,100.00
2023-03-29T03:08:11.474Z,100.00
2023-03-29T03:10:39.896Z,100.00
2023-03-29T03:13:07.572Z,100.00
2023-03-29T03:15:35.834Z,100.00
2023-03-29T03:18:04.515Z,100.00
2023-03-29T03:20:33.599Z,100.00
2023-03-29T03:23:03.303Z,100.00
2023-03-29T03:25:31.704Z,100.00
2023-03-29T03:27:59.502Z,100.00
2023-03-29T03:30:29.359Z,100.00
2023-03-29T03:32:57.162Z,100.00
2023-03-29T03:35:25.311Z,100.00
2023-03-29T03:37:54.389Z,100.00
2023-03-29T03:40:22.120Z,100.00
2023-03-29T03:42:49.790Z,100.00
2023-03-29T03:45:17.583Z,100.00
2023-03-29T03:47:45.562Z,100.00
2023-03-29T03:50:13.792Z,100.00
2023-03-29T03:52:41.408Z,100.00
2023-03-29T03:55:10.858Z,100.00
2023-03-29T03:57:38.545Z,100.00
2023-03-29T04:00:19.429Z,100.00
2023-03-29T04:02:48.356Z,100.00
2023-03-29T04:05:16.405Z,100.00
2023-03-29T04:07:44.170Z,100.00
2023-03-29T04:10:13.303Z,100.00
2023-03-29T04:12:41.072Z,100.00
2023-03-29T04:15:10.525Z,100.00
2023-03-29T04:17:38.715Z,100.00
2023-03-29T04:20:11.623Z,100.00
2023-03-29T04:22:39.417Z,100.00
2023-03-29T04:25:08.230Z,100.00
2023-03-29T04:27:39.609Z,100.00
2023-03-29T04:30:08.246Z,100.00
2023-03-29T04:32:36.345Z,100.00
2023-03-29T04:35:04.840Z,100.00
2023-03-29T04:37:32.956Z,100.00
2023-03-29T04:40:01.393Z,100.00
2023-03-29T04:42:29.427Z,100.00
2023-03-29T04:44:58.593Z,100.00
2023-03-29T04:47:30.119Z,100.00
2023-03-29T04:49:58.052Z,100.00
2023-03-29T04:52:26.120Z,100.00
2023-03-29T04:54:53.832Z,100.00
2023-03-29T04:57:21.515Z,100.00
2023-03-29T04:59:49.215Z,100.00
2023-03-29T05:02:18.293Z,100.00
2023-03-29T05:04:46.032Z,100.00
2023-03-29T05:07:15.576Z,100.00
2023-03-29T05:09:43.721Z,100.00
2023-03-29T05:12:11.628Z,100.00
2023-03-29T05:14:39.240Z,100.00
2023-03-29T05:17:06.946Z,100.00
2023-03-29T05:19:36.550Z,100.00
2023-03-29T05:22:04.162Z,100.00
2023-03-29T05:24:31.837Z,100.00
2023-03-29T05:26:59.654Z,100.00
2023-03-29T05:29:27.399Z,100.00
2023-03-29T05:31:55.373Z,100.00
2023-03-29T05:34:23.151Z,100.00
2023-03-29T05:36:52.367Z,100.00
2023-03-29T05:39:21.127Z,100.00
2023-03-29T05:41:48.860Z,100.00
2023-03-29T05:44:16.941Z,100.00
2023-03-29T05:46:44.554Z,100.00
2023-03-29T05:49:12.413Z,100.00
2023-03-29T05:51:42.084Z,100.00
2023-03-29T05:54:11.584Z,100.00
2023-03-29T05:56:39.328Z,100.00
2023-03-29T05:59:08.438Z,100.00
2023-03-29T06:01:36.734Z,100.00
2023-03-29T06:04:06.162Z,100.00
2023-03-29T06:06:33.989Z,100.00
2023-03-29T06:09:01.658Z,100.00
2023-03-29T06:11:30.635Z,100.00
2023-03-29T06:13:58.556Z,100.00
2023-03-29T06:16:26.285Z,100.00
2023-03-29T06:18:54.226Z,100.00
2023-03-29T06:21:22.319Z,100.00
2023-03-29T06:23:50.395Z,100.00
2023-03-29T06:26:18.978Z,100.00
2023-03-29T06:28:51.362Z,100.00
2023-03-29T06:31:20.008Z,100.00
2023-03-29T06:33:47.812Z,100.00
2023-03-29T06:36:16.728Z,100.00
2023-03-29T06:38:46.006Z,100.00
2023-03-29T06:41:13.682Z,100.00
2023-03-29T06:43:41.987Z,100.00
2023-03-29T06:46:12.279Z,100.00
2023-03-29T06:48:40.305Z,100.00
2023-03-29T06:51:08.640Z,100.00
2023-03-29T06:53:36.742Z,100.00
2023-03-29T06:56:09.386Z,100.00
2023-03-29T06:58:37.351Z,100.00
2023-03-29T07:01:05.565Z,100.00
2023-03-29T07:03:36.341Z,100.00
2023-03-29T07:06:09.851Z,100.00
2023-03-29T07:08:43.372Z,100.00
2023-03-29T07:11:12.593Z,100.00
2023-03-29T07:13:42.461Z,100.00
2023-03-29T07:16:12.756Z,100.00
2023-03-29T07:18:42.940Z,100.00
2023-03-29T07:21:11.657Z,100.00
2023-03-29T07:23:39.300Z,100.00
2023-03-29T07:26:08.099Z,100.00
2023-03-29T07:28:37.497Z,100.00
2023-03-29T07:31:06.849Z,100.00
2023-03-29T07:33:35.230Z,100.00
2023-03-29T07:36:04.898Z,100.00
2023-03-29T07:38:32.851Z,100.00
2023-03-29T07:41:00.830Z,100.00
2023-03-29T07:43:29.093Z,100.00
2023-03-29T07:45:59.053Z,100.00
2023-03-29T07:48:26.939Z,100.00
2023-03-29T07:50:54.550Z,100.00
2023-03-29T07:53:23.789Z,100.00
2023-03-29T07:55:54.424Z,100.00
2023-03-29T07:58:22.575Z,100.00
2023-03-29T08:00:50.748Z,100.00
2023-03-29T08:03:18.654Z,100.00
2023-03-29T08:05:46.397Z,100.00
2023-03-29T08:08:14.218Z,100.00
2023-03-29T08:10:44.611Z,100.00
2023-03-29T08:13:12.596Z,100.00
2023-03-29T08:15:42.188Z,100.00
2023-03-29T08:18:10.006Z,100.00
2023-03-29T08:20:37.739Z,100.00
2023-03-29T08:23:06.457Z,100.00
2023-03-29T08:25:35.175Z,100.00
2023-03-29T08:28:04.404Z,100.00
2023-03-29T08:30:32.159Z,100.00
2023-03-29T08:32:59.854Z,100.00
2023-03-29T08:35:27.689Z,100.00
2023-03-29T08:37:55.293Z,100.00
2023-03-29T08:40:26.367Z,100.00
2023-03-29T08:43:07.103Z,100.00
2023-03-29T08:45:38.492Z,100.00
2023-03-29T08:48:12.440Z,100.00
2023-03-29T08:50:41.990Z,100.00
2023-03-29T08:53:13.864Z,100.00
2023-03-29T08:55:42.949Z,100.00
2023-03-29T08:58:15.697Z,100.00
2023-03-29T09:00:45.143Z,100.00
2023-03-29T09:03:17.944Z,100.00
2023-03-29T09:05:47.474Z,100.00
2023-03-29T09:08:17.503Z,100.00
2023-03-29T09:10:47.350Z,100.00
2023-03-29T09:13:22.513Z,100.00
2023-03-29T09:15:56.105Z,100.00
2023-03-29T09:18:27.628Z,100.00
2023-03-29T09:20:58.153Z,100.00
2023-03-29T09:23:44.439Z,100.00
2023-03-29T09:26:15.793Z,100.00
2023-03-29T09:28:48.518Z,100.00
2023-03-29T09:31:16.809Z,100.00
2023-03-29T09:33:47.782Z,100.00
2023-03-29T09:36:18.429Z,100.00
2023-03-29T09:38:49.072Z,100.00
2023-03-29T09:41:21.789Z,100.00
2023-03-29T09:43:51.820Z,100.00
2023-03-29T09:46:23.858Z,100.00
2023-03-29T09:48:52.033Z,100.00
2023-03-29T09:51:22.707Z,100.00
2023-03-29T09:53:50.589Z,100.00
2023-03-29T09:56:19.071Z,100.00
2023-03-29T09:58:47.660Z,100.00
2023-03-29T10:01:18.922Z,100.00
2023-03-29T10:03:49.045Z,100.00
2023-03-29T10:06:17.534Z,100.00
2023-03-29T10:08:47.728Z,100.00
2023-03-29T10:11:22.083Z,100.00
2023-03-29T10:13:51.419Z,100.00
2023-03-29T10:16:21.768Z,100.00
2023-03-29T10:18:50.263Z,100.00
2023-03-29T10:21:20.180Z,100.00
2023-03-29T10:23:48.478Z,99.66
2023-03-29T10:26:23.882Z,98.85
2023-03-29T10:28:54.212Z,98.99
2023-03-29T10:31:24.061Z,98.26
2023-03-29T10:33:53.328Z,98.29
2023-03-29T10:36:22.656Z,98.37
2023-03-29T10:38:51.302Z,97.60
2023-03-29T10:41:20.363Z,96.54
2023-03-29T10:43:50.849Z,94.73
2023-03-29T10:46:23.115Z,94.25
2023-03-29T10:48:53.142Z,94.95
2023-03-29T10:51:21.136Z,94.89
2023-03-29T10:53:49.082Z,93.66
2023-03-29T10:56:28.003Z,94.28
2023-03-29T10:59:10.129Z,95.03
2023-03-29T11:01:42.564Z,93.12
2023-03-29T11:04:19.492Z,92.26
2023-03-29T11:06:48.759Z,91.69
2023-03-29T11:09:22.806Z,92.29
2023-03-29T11:12:15.613Z,90.40
2023-03-29T11:14:48.870Z,90.79
2023-03-29T11:17:26.721Z,91.46
2023-03-29T11:20:05.197Z,91.49
2023-03-29T11:22:41.440Z,89.23
2023-03-29T11:25:15.893Z,88.43
2023-03-29T11:27:46.836Z,86.70
2023-03-29T11:30:19.868Z,86.58
2023-03-29T11:32:53.391Z,86.41
2023-03-29T11:35:32.429Z,85.80
2023-03-29T11:38:03.239Z,85.92
2023-03-29T11:40:36.689Z,83.38
2023-03-29T11:43:07.145Z,80.99
2023-03-29T11:45:37.484Z,84.06
2023-03-29T11:48:07.838Z,83.26
2023-03-29T11:50:42.171Z,83.86
2023-03-29T11:53:12.716Z,84.94
2023-03-29T11:55:41.441Z,84.08
2023-03-29T11:58:14.267Z,81.59
2023-03-29T12:00:44.877Z,82.65
2023-03-29T12:03:14.943Z,81.26
2023-03-29T12:05:46.896Z,82.48
2023-03-29T12:08:17.068Z,84.42
2023-03-29T12:10:47.228Z,84.05
2023-03-29T12:13:18.191Z,84.82
2023-03-29T12:15:49.363Z,84.98
2023-03-29T12:18:18.955Z,86.45
2023-03-29T12:20:49.711Z,86.57
2023-03-29T12:23:17.843Z,86.77
2023-03-29T12:25:52.319Z,87.18
2023-03-29T12:28:28.484Z,87.11
2023-03-29T12:31:02.864Z,86.47
2023-03-29T12:33:42.081Z,83.92
2023-03-29T12:36:17.485Z,84.32
2023-03-29T12:38:48.105Z,83.87
2023-03-29T12:41:19.023Z,83.41
2023-03-29T12:43:48.125Z,86.05
2023-03-29T12:46:18.305Z,85.32
2023-03-29T12:48:47.666Z,86.27
2023-03-29T12:51:17.970Z,87.60
2023-03-29T12:53:47.087Z,85.84
2023-03-29T12:56:16.196Z,89.60
2023-03-29T12:58:51.224Z,90.08
2023-03-29T13:01:27.474Z,91.87
2023-03-29T13:03:58.397Z,93.45
2023-03-29T13:06:33.026Z,95.10
2023-03-29T13:09:02.013Z,95.86
2023-03-29T13:11:33.808Z,96.47
2023-03-29T13:14:03.200Z,96.38
2023-03-29T13:16:34.416Z,96.82
2023-03-29T13:19:08.792Z,97.10
2023-03-29T13:21:42.072Z,96.89
2023-03-29T13:24:22.347Z,97.77
2023-03-29T13:26:54.909Z,97.72
2023-03-29T13:29:41.535Z,95.96
2023-03-29T13:32:20.458Z,95.32
2023-03-29T13:34:51.608Z,96.00
2023-03-29T13:37:29.900Z,96.66
2023-03-29T13:39:57.696Z,97.60
2023-03-29T13:42:26.191Z,97.87
2023-03-29T13:44:54.288Z,97.33
2023-03-29T13:47:43.165Z,96.19
2023-03-29T13:50:17.846Z,95.87
2023-03-29T13:52:53.968Z,96.31
2023-03-29T13:55:25.140Z,97.60
2023-03-29T13:57:56.818Z,98.83
2023-03-29T14:00:26.978Z,100.00
2023-03-29T14:02:56.302Z,100.00
2023-03-29T14:05:26.481Z,100.00
2023-03-29T14:07:56.396Z,100.00
2023-03-29T14:10:26.777Z,100.00
2023-03-29T14:12:55.615Z,100.00
2023-03-29T14:15:24.684Z,100.00
2023-03-29T14:17:58.962Z,100.00
2023-03-29T14:20:28.807Z,100.00
2023-03-29T14:22:57.939Z,100.00
2023-03-29T14:25:25.744Z,100.00
2023-03-29T14:27:53.470Z,100.00
2023-03-29T14:30:23.181Z,100.00
2023-03-29T14:32:52.436Z,100.00
2023-03-29T14:35:20.862Z,100.00
2023-03-29T14:37:49.245Z,100.00
2023-03-29T14:40:19.391Z,100.00
2023-03-29T14:42:48.255Z,100.00
2023-03-29T14:45:17.696Z,100.00
2023-03-29T14:47:46.397Z,100.00
2023-03-29T14:50:19.050Z,100.00
2023-03-29T14:52:49.234Z,100.00
2023-03-29T14:55:23.747Z,100.00
2023-03-29T14:57:52.886Z,100.00
2023-03-29T15:00:24.468Z,100.00
2023-03-29T15:02:55.222Z,100.00
2023-03-29T15:05:25.620Z,100.00
2023-03-29T15:07:56.252Z,100.00
2023-03-29T15:10:25.889Z,100.00
2023-03-29T15:12:54.759Z,100.00
2023-03-29T15:15:24.916Z,100.00
2023-03-29T15:17:57.158Z,100.00
2023-03-29T15:20:26.914Z,100.00
2023-03-29T15:22:57.021Z,100.00
2023-03-29T15:25:27.787Z,100.00
2023-03-29T15:27:57.970Z,100.00
2023-03-29T15:30:34.424Z,100.00
2023-03-29T15:33:15.170Z,100.00
2023-03-29T15:35:43.701Z,100.00
2023-03-29T15:38:12.012Z,100.00
2023-03-29T15:40:41.166Z,100.00
2023-03-29T15:43:08.848Z,100.00
2023-03-29T15:45:36.701Z,100.00
2023-03-29T15:48:10.116Z,100.00
2023-03-29T15:50:37.747Z,100.00
2023-03-29T15:53:14.809Z,100.00
2023-03-29T15:55:46.322Z,100.00
2023-03-29T15:58:15.220Z,100.00
2023-03-29T16:00:44.501Z,100.00
2023-03-29T16:03:14.792Z,100.00
2023-03-29T16:05:42.912Z,100.00
2023-03-29T16:08:11.249Z,100.00
2023-03-29T16:10:39.075Z,100.00
2023-03-29T16:13:08.167Z,100.00
2023-03-29T16:15:36.862Z,100.00
2023-03-29T16:18:04.752Z,100.00
2023-03-29T16:20:32.506Z,100.00
2023-03-29T16:23:00.212Z,100.00
2023-03-29T16:25:28.890Z,100.00
2023-03-29T16:27:56.579Z,100.00
2023-03-29T16:30:25.783Z,100.00
2023-03-29T16:32:53.422Z,100.00
2023-03-29T16:35:22.873Z,100.00
2023-03-29T16:37:50.580Z,100.00
2023-03-29T16:40:18.373Z,100.00
2023-03-29T16:42:46.035Z,100.00
2023-03-29T16:45:14.398Z,100.00
2023-03-29T16:47:44.778Z,100.00
2023-03-29T16:50:13.308Z,100.00
2023-03-29T16:52:41.638Z,100.00
2023-03-29T16:55:12.137Z,100.00
2023-03-29T16:57:40.760Z,100.00
2023-03-29T17:00:10.837Z,100.00
2023-03-29T17:02:38.675Z,100.00
2023-03-29T17:05:08.036Z,100.00
2023-03-29T17:07:36.074Z,100.00
2023-03-29T17:10:04.800Z,100.00
2023-03-29T17:12:32.453Z,100.00
2023-03-29T17:15:00.441Z,100.00
2023-03-29T17:17:28.174Z,100.00
2023-03-29T17:19:56.187Z,100.00
2023-03-29T17:22:25.473Z,100.00
2023-03-29T17:24:53.306Z,100.00
2023-03-29T17:27:21.041Z,100.00
2023-03-29T17:29:48.741Z,100.00
2023-03-29T17:32:16.460Z,100.00
2023-03-29T17:34:44.136Z,100.00
2023-03-29T17:37:11.792Z,100.00
2023-03-29T17:39:42.108Z,100.00
2023-03-29T17:42:11.662Z,100.00
2023-03-29T17:44:39.426Z,100.00
2023-03-29T17:47:07.240Z,100.00
2023-03-29T17:49:35.107Z,100.00
2023-03-29T17:52:02.788Z,100.00
2023-03-29T17:54:30.603Z,100.00
2023-03-29T17:56:59.686Z,100.00
2023-03-29T17:59:27.425Z,100.00
2023-03-29T18:01:55.189Z,100.00
2023-03-29T18:04:22.985Z,100.00
2023-03-29T18:06:50.668Z,100.00
2023-03-29T18:09:18.344Z,100.00
2023-03-29T18:11:46.125Z,100.00
2023-03-29T18:14:15.258Z,100.00
2023-03-29T18:16:43.119Z,100.00
2023-03-29T18:19:11.002Z,100.00
2023-03-29T18:21:38.741Z,100.00
2023-03-29T18:24:06.500Z,100.00
2023-03-29T18:26:34.136Z,100.00
2023-03-29T18:29:01.901Z,100.00
2023-03-29T18:31:30.986Z,100.00
2023-03-29T18:33:58.892Z,100.00
2023-03-29T18:36:26.768Z,100.00
2023-03-29T18:38:55.990Z,100.00
2023-03-29T18:41:24.606Z,100.00
2023-03-29T18:43:52.307Z,100.00
2023-03-29T18:46:19.955Z,100.00
2023-03-29T18:48:49.186Z,100.00
2023-03-29T18:51:16.829Z,100.00
2023-03-29T18:53:44.579Z,100.00
2023-03-29T18:56:12.395Z,100.00
2023-03-29T18:58:40.055Z,100.00
2023-03-29T19:01:08.152Z,100.00
2023-03-29T19:03:36.397Z,100.00
2023-03-29T19:06:06.677Z,100.00
2023-03-29T19:08:36.681Z,100.00
2023-03-29T19:11:05.539Z,100.00
2023-03-29T19:13:33.301Z,100.00
2023-03-29T19:16:01.239Z,100.00
2023-03-29T19:18:29.311Z,100.00
2023-03-29T19:20:57.022Z,100.00
2023-03-29T19:23:28.249Z,100.00
2023-03-29T19:25:56.758Z,100.00
2023-03-29T19:28:24.921Z,100.00
2023-03-29T19:30:52.931Z,100.00
2023-03-29T19:33:20.885Z,100.00
2023-03-29T19:35:50.487Z,100.00
2023-03-29T19:38:18.186Z,100.00
2023-03-29T19:40:47.370Z,100.00
2023-03-29T19:43:16.786Z,100.00
2023-03-29T19:45:44.716Z,100.00
2023-03-29T19:48:21.169Z,100.00
2023-03-29T19:50:49.835Z,100.00
2023-03-29T19:53:17.511Z,100.00
2023-03-29T19:55:45.601Z,100.00
2023-03-29T19:58:14.756Z,100.00
2023-03-29T20:00:42.537Z,100.00
2023-03-29T20:03:10.557Z,100.00
2023-03-29T20:05:39.512Z,100.00
2023-03-29T20:08:07.650Z,100.00
2023-03-29T20:10:35.858Z,100.00
2023-03-29T20:13:05.734Z,100.00
2023-03-29T20:15:35.024Z,100.00
2023-03-29T20:18:03.432Z,100.00
2023-03-29T20:20:31.762Z,100.00
2023-03-29T20:23:04.561Z,100.00
2023-03-29T20:25:32.956Z,100.00
2023-03-29T20:28:00.700Z,100.00
2023-03-29T20:30:28.480Z,100.00
2023-03-29T20:32:57.690Z,100.00
2023-03-29T20:35:25.718Z,100.00
2023-03-29T20:37:53.388Z,100.00
2023-03-29T20:40:21.030Z,100.00
2023-03-29T20:42:49.057Z,100.00
2023-03-29T20:45:19.556Z,100.00
2023-03-29T20:47:57.730Z,100.00
2023-03-29T20:50:27.437Z,100.00
2023-03-29T20:52:55.456Z,100.00
2023-03-29T20:55:23.499Z,100.00
2023-03-29T20:57:51.346Z,100.00
2023-03-29T21:00:19.908Z,100.00
2023-03-29T21:02:47.819Z,100.00
2023-03-29T21:05:16.221Z,100.00
2023-03-29T21:07:48.056Z,100.00
2023-03-29T21:10:15.827Z,100.00
2023-03-29T21:12:43.531Z,100.00
2023-03-29T21:15:13.392Z,100.00
2023-03-29T21:17:41.306Z,100.00
2023-03-29T21:20:11.149Z,100.00
2023-03-29T21:22:39.016Z,100.00
2023-03-29T21:25:10.533Z,100.00
2023-03-29T21:27:38.542Z,100.00
2023-03-29T21:30:07.019Z,100.00
2023-03-29T21:32:34.865Z,100.00
2023-03-29T21:35:02.636Z,100.00
2023-03-29T21:37:30.368Z,100.00
2023-03-29T21:39:58.089Z,100.00
2023-03-29T21:42:27.089Z,100.00
2023-03-29T21:44:54.791Z,100.00
2023-03-29T21:47:22.505Z,100.00
2023-03-29T21:49:51.068Z,100.00
2023-03-29T21:52:18.832Z,100.00
2023-03-29T21:54:46.475Z,100.00
2023-03-29T21:57:14.270Z,100.00
2023-03-29T21:59:43.301Z,100.00
2023-03-29T22:02:11.188Z,100.00
2023-03-29T22:04:39.091Z,100.00
2023-03-29T22:07:08.328Z,100.00
2023-03-29T22:09:36.165Z,100.00
2023-03-29T22:12:03.967Z,100.00
2023-03-29T22:14:34.724Z,100.00
2023-03-29T22:17:05.843Z,100.00
2023-03-29T22:19:34.562Z,100.00
2023-03-29T22:22:02.432Z,100.00
2023-03-29T22:24:30.110Z,100.00
2023-03-29T22:26:57.700Z,100.00
2023-03-29T22:29:25.634Z,100.00
2023-03-29T22:31:53.430Z,100.00
2023-03-29T22:34:22.678Z,100.00
2023-03-29T22:36:50.375Z,100.00
2023-03-29T22:39:17.993Z,100.00
2023-03-29T22:41:46.001Z,100.00
2023-03-29T22:44:13.656Z,100.00
2023-03-29T22:46:41.346Z,100.00
2023-03-29T22:49:09.057Z,100.00
2023-03-29T22:51:38.206Z,100.00
2023-03-29T22:54:06.037Z,100.00
2023-03-29T22:56:33.714Z,100.00
2023-03-29T22:59:01.375Z,100.00
2023-03-29T23:01:29.013Z,100.00
2023-03-29T23:03:56.737Z,100.00
2023-03-29T23:06:24.567Z,100.00
2023-03-29T23:08:53.630Z,100.00
2023-03-29T23:11:21.597Z,100.00
2023-03-29T23:13:49.711Z,100.00
2023-03-29T23:16:20.659Z,100.00
2023-03-29T23:18:48.512Z,100.00
2023-03-29T23:21:16.654Z,100.00
2023-03-29T23:23:44.754Z,100.00
2023-03-29T23:26:14.064Z,100.00
2023-03-29T23:28:42.332Z,100.00
2023-03-29T23:31:11.510Z,100.00
2023-03-29T23:33:40.406Z,100.00
2023-03-29T23:36:08.967Z,100.00
2023-03-29T23:38:37.541Z,100.00
2023-03-29T23:41:06.545Z,100.00
2023-03-29T23:43:37.282Z,100.00
2023-03-29T23:46:07.037Z,100.00
2023-03-29T23:48:35.028Z,100.00
2023-03-29T23:51:03.105Z,100.00
2023-03-29T23:53:32.116Z,100.00
2023-03-29T23:56:00.601Z,100.00
2023-03-29T23:58:28.546Z,100.00
